Orangeburg Municipal Airport Orangeburg US
ICAO: KOGB
IATA: OGB
Category: Medium
Scheduled Services: No

Elevation: 195 ft
TransAlt. 18000 ft.

Airport Communications:
COLUMBIA APP/DEP:124.15
ASOS:118.525
CTAF/UNICOM:122.7

KOGB Zoom In..

If you have problems with the map follow the link
https://www.worldairports.se/pages/airport.php?
ICAO=KOGB

Runways:

(A) RW 05 length 4508 ft width 100 ft
---- / hdg 49

(B) RW 17 length 5399 ft width 100 ft
---- / hdg 174

(C) RW 23 length 4508 ft width 100 ft
---- / hdg 229

(D) RW 35 length 5399 ft width 100 ft
---- / hdg 354

Location; KOGB
Day. 18 / Time. 07.53 Zulu
* Altimeter: 30.24
* Temperature: 18° c. 64.4°f.
* Wind from: 020° Speed 07 kn.
Dewpoint: 09° c.
Visibility: 10 Statute Miles.
Clouds: Clear (automated report).

KOGB 180753Z AUTO 02007KT 10SM CLR 18/09 A3024 RMK AO2 SLP237 T01780089


Wind From 020°
Speed 07 kn.

 
 
jpsmedia.com for Web Design worldairports.se 2018   terms of use